Time;durP1;ratioP1;P1;durP2;ratioP2;P2;SDS_P1;SDS_P2;PMS_P1;PMS_P2;Temp;Humidity;BMP_temperature;BMP_pressure;BME280_temperature;BME280_humidity;BME280_pressure;Samples;Min_cycle;Max_cycle;Signal;HPM_P1;HPM_P2
2023/12/22 00:00:29;;;;;;;9.35;5.85;;;;;;;7.34;50.15;97340.91;4956294;29;20394;-78
2023/12/22 00:02:54;;;;;;;10.00;6.00;;;;;;;7.32;50.52;97341.03;4955947;28;20441;-79
2023/12/22 00:05:19;;;;;;;9.38;5.50;;;;;;;7.28;50.87;97333.63;4955115;29;20039;-78
2023/12/22 00:07:45;;;;;;;9.07;5.57;;;;;;;7.23;50.58;97327.06;4955812;28;20502;-79
2023/12/22 00:10:10;;;;;;;12.00;5.72;;;;;;;7.22;51.35;97329.78;4954751;29;20042;-80
2023/12/22 00:12:38;;;;;;;11.23;5.60;;;;;;;7.21;51.06;97321.19;4954697;29;20101;-79
2023/12/22 00:15:04;;;;;;;10.57;5.82;;;;;;;7.16;50.69;97301.75;4954796;29;20039;-80
2023/12/22 00:17:30;;;;;;;10.23;5.75;;;;;;;7.19;50.83;97307.50;4954658;29;20034;-80
2023/12/22 00:19:58;;;;;;;8.45;5.63;;;;;;;7.18;50.51;97313.66;4938552;29;20032;-78
2023/12/22 00:22:25;;;;;;;8.13;5.65;;;;;;;7.14;50.73;97295.88;4954849;29;20411;-79
2023/12/22 00:24:50;;;;;;;14.52;5.93;;;;;;;7.09;50.54;97298.88;4956342;28;20122;-78
2023/12/22 00:27:16;;;;;;;9.77;6.07;;;;;;;7.07;51.21;97303.38;4941661;28;20442;-78
2023/12/22 00:29:41;;;;;;;10.85;6.20;;;;;;;6.99;50.90;97293.63;4941226;28;20046;-78
2023/12/22 00:32:09;;;;;;;10.45;6.47;;;;;;;6.96;51.09;97296.50;4941171;28;20502;-77
2023/12/22 00:34:35;;;;;;;10.52;6.75;;;;;;;6.95;50.74;97294.03;4957816;28;20030;-78
2023/12/22 00:37:00;;;;;;;13.02;7.05;;;;;;;6.91;50.95;97300.41;4941823;28;20040;-79
2023/12/22 00:39:26;;;;;;;12.88;6.95;;;;;;;6.91;50.81;97296.06;4923160;29;20035;-78
2023/12/22 00:41:52;;;;;;;10.65;7.00;;;;;;;6.93;51.15;97304.53;4938365;29;20035;-78
2023/12/22 00:44:17;;;;;;;9.95;6.80;;;;;;;6.90;51.30;97297.00;4938210;29;20031;-79
2023/12/22 00:46:42;;;;;;;12.68;7.63;;;;;;;6.89;51.37;97297.94;4955247;29;20035;-78
2023/12/22 00:49:08;;;;;;;11.38;7.40;;;;;;;6.91;51.17;97288.28;4938066;29;20031;-79
2023/12/22 00:51:33;;;;;;;12.15;7.57;;;;;;;6.90;51.08;97281.44;4921831;29;20427;-78
2023/12/22 00:53:59;;;;;;;11.75;6.90;;;;;;;6.89;50.94;97277.19;4938178;29;20460;-77
2023/12/22 00:56:24;;;;;;;13.20;7.53;;;;;;;6.78;50.99;97266.91;4938099;29;20047;-79
2023/12/22 00:58:50;;;;;;;13.68;8.30;;;;;;;6.80;51.37;97260.66;4921914;29;20069;-79
2023/12/22 01:01:15;;;;;;;13.48;7.95;;;;;;;6.80;51.11;97259.81;4921935;29;20035;-79
2023/12/22 01:03:41;;;;;;;14.90;8.18;;;;;;;6.79;50.93;97263.38;4922405;29;20046;-78
2023/12/22 01:06:06;;;;;;;14.07;8.68;;;;;;;6.75;51.00;97269.75;4938095;29;20418;-77
2023/12/22 01:08:32;;;;;;;13.75;8.52;;;;;;;6.70;51.39;97270.97;4937784;29;20051;-78
2023/12/22 01:10:57;;;;;;;12.50;7.72;;;;;;;6.70;51.50;97259.75;4921876;29;20419;-79
2023/12/22 01:13:22;;;;;;;13.95;7.85;;;;;;;6.67;51.20;97268.63;4937765;29;20035;-77
2023/12/22 01:15:48;;;;;;;15.27;8.07;;;;;;;6.68;51.58;97272.03;4921657;29;20043;-78
2023/12/22 01:18:13;;;;;;;12.15;7.63;;;;;;;6.63;51.22;97256.06;4954534;29;20464;-77
2023/12/22 01:20:39;;;;;;;15.15;8.23;;;;;;;6.64;51.73;97250.75;4937871;29;20090;-79
2023/12/22 01:23:04;;;;;;;17.23;8.10;;;;;;;6.64;51.10;97250.75;4937525;29;20061;-78
2023/12/22 01:25:30;;;;;;;13.07;8.57;;;;;;;6.64;51.84;97242.97;4901933;29;20059;-78
2023/12/22 01:27:55;;;;;;;14.95;8.98;;;;;;;6.61;51.66;97235.44;4918596;29;20036;-79
2023/12/22 01:30:21;;;;;;;17.52;9.85;;;;;;;6.60;52.47;97225.19;4934361;29;20031;-80
2023/12/22 01:32:46;;;;;;;13.23;8.35;;;;;;;6.57;51.68;97220.28;4934730;29;20058;-79
2023/12/22 01:35:12;;;;;;;15.80;8.20;;;;;;;6.55;52.25;97217.81;4935802;29;20039;-78
2023/12/22 01:37:37;;;;;;;13.32;7.70;;;;;;;6.50;52.16;97200.03;4902974;29;20024;-79
2023/12/22 01:40:03;;;;;;;14.38;8.00;;;;;;;6.52;52.27;97200.72;4934619;29;20407;-78
2023/12/22 01:42:29;;;;;;;15.70;7.50;;;;;;;6.50;52.41;97194.88;4934587;29;20466;-78
2023/12/22 01:44:55;;;;;;;13.13;7.53;;;;;;;6.49;52.68;97200.97;4937914;29;20042;-79
2023/12/22 01:47:20;;;;;;;12.77;7.68;;;;;;;6.52;53.06;97189.53;4939116;29;20385;-79
2023/12/22 01:49:45;;;;;;;13.50;7.00;;;;;;;6.56;52.61;97193.50;4937934;29;20472;-80
2023/12/22 01:52:11;;;;;;;12.57;6.75;;;;;;;6.54;52.84;97185.03;4927176;29;20051;-79
2023/12/22 01:54:36;;;;;;;11.52;6.97;;;;;;;6.54;52.90;97187.63;4942421;28;20040;-78
2023/12/22 01:57:02;;;;;;;10.27;5.70;;;;;;;6.54;52.85;97174.69;4940839;29;20071;-79
2023/12/22 01:59:30;;;;;;;11.07;5.95;;;;;;;6.49;52.80;97169.06;4958075;29;20414;-78
2023/12/22 02:01:56;;;;;;;13.65;6.60;;;;;;;6.54;53.30;97176.47;4957386;29;20609;-79
2023/12/22 02:04:21;;;;;;;14.25;6.28;;;;;;;6.53;52.77;97167.84;4924939;29;20064;-79
2023/12/22 02:06:47;;;;;;;9.80;6.30;;;;;;;6.51;52.78;97162.81;4941031;29;20035;-78
2023/12/22 02:09:12;;;;;;;11.93;6.20;;;;;;;6.52;52.32;97166.22;4940874;29;20035;-78
2023/12/22 02:11:38;;;;;;;15.07;6.70;;;;;;;6.50;52.84;97161.16;4940811;29;20039;-78
2023/12/22 02:14:04;;;;;;;10.63;6.18;;;;;;;6.47;53.44;97158.00;4941034;29;20023;-78
2023/12/22 02:16:48;;;;;;;10.23;6.07;;;;;;;6.55;53.36;97157.34;4940711;29;20544;-79
2023/12/22 02:19:39;;;;;;;11.52;6.18;;;;;;;6.57;53.17;97153.69;4957758;29;20483;-79
2023/12/22 02:22:06;;;;;;;9.85;5.97;;;;;;;6.53;52.95;97154.88;4880326;29;20048;-78
2023/12/22 02:24:31;;;;;;;11.57;5.57;;;;;;;6.47;53.18;97148.47;4864785;29;20049;-78
2023/12/22 02:27:03;;;;;;;11.68;6.32;;;;;;;6.50;53.32;97155.16;4879893;29;20136;-80
2023/12/22 02:29:30;;;;;;;8.38;5.70;;;;;;;6.47;53.50;97143.28;4865287;29;20026;-79
2023/12/22 02:31:55;;;;;;;9.88;5.70;;;;;;;6.51;53.37;97138.63;4849450;29;20045;-78
2023/12/22 02:34:21;;;;;;;12.27;6.47;;;;;;;6.50;53.51;97140.41;4880615;29;20545;-78
2023/12/22 02:36:47;;;;;;;9.35;5.47;;;;;;;6.50;53.59;97137.03;4849167;29;20104;-79
2023/12/22 02:39:12;;;;;;;12.93;6.20;;;;;;;6.52;53.36;97137.69;4849067;29;20045;-79
2023/12/22 02:41:38;;;;;;;9.23;5.70;;;;;;;6.52;53.31;97145.47;4834017;29;20099;-79
2023/12/22 02:44:03;;;;;;;7.35;5.32;;;;;;;6.51;53.50;97142.06;4849018;29;20065;-77
2023/12/22 02:46:29;;;;;;;9.20;6.00;;;;;;;6.51;53.71;97136.03;4864434;29;20443;-78
2023/12/22 02:48:54;;;;;;;9.95;5.93;;;;;;;6.51;53.61;97138.63;4864559;29;20141;-78
2023/12/22 02:51:20;;;;;;;9.23;5.82;;;;;;;6.47;53.39;97134.69;4864136;29;20073;-79
2023/12/22 02:53:45;;;;;;;9.02;6.10;;;;;;;6.50;54.04;97145.59;4848223;29;20037;-78
2023/12/22 02:56:11;;;;;;;9.95;6.05;;;;;;;6.47;53.85;97132.91;4848634;29;20045;-78
2023/12/22 02:58:36;;;;;;;9.15;5.50;;;;;;;6.54;53.51;97132.38;4862806;29;20039;-78
2023/12/22 03:01:02;;;;;;;8.55;5.70;;;;;;;6.56;53.99;97127.88;4955896;29;20035;-78
2023/12/22 03:03:27;;;;;;;12.45;6.30;;;;;;;6.57;53.35;97122.56;4939446;29;20079;-78
2023/12/22 03:05:53;;;;;;;12.68;5.43;;;;;;;6.56;53.35;97120.09;4956207;29;20384;-79
2023/12/22 03:08:18;;;;;;;10.00;6.47;;;;;;;6.52;53.28;97110.00;4956172;29;20030;-78
2023/12/22 03:10:43;;;;;;;8.80;6.07;;;;;;;6.59;53.54;97138.81;4939940;29;20039;-78
2023/12/22 03:13:09;;;;;;;10.02;6.15;;;;;;;6.59;53.19;97125.03;4957297;28;20030;-79
2023/12/22 03:15:34;;;;;;;9.63;5.85;;;;;;;6.55;53.09;97111.50;4924818;29;20043;-80
2023/12/22 03:18:00;;;;;;;11.02;6.32;;;;;;;6.54;53.44;97102.09;4939689;29;20031;-79
2023/12/22 03:20:25;;;;;;;12.18;6.57;;;;;;;6.57;53.38;97108.78;4939849;29;20472;-79
2023/12/22 03:22:51;;;;;;;13.48;6.63;;;;;;;6.50;53.50;97098.94;4957232;28;20027;-79
2023/12/22 03:25:16;;;;;;;10.63;7.03;;;;;;;6.57;53.70;97104.41;4955688;28;20047;-79
2023/12/22 03:27:42;;;;;;;11.80;7.20;;;;;;;6.58;53.28;97105.22;4955909;29;20035;-78
2023/12/22 03:30:08;;;;;;;12.90;7.10;;;;;;;6.57;53.24;97112.19;4956414;28;20086;-83
2023/12/22 03:32:33;;;;;;;11.13;6.68;;;;;;;6.55;53.54;97111.50;4922809;29;20567;-78
2023/12/22 03:34:59;;;;;;;13.00;7.18;;;;;;;6.53;53.63;97108.22;4956712;28;20036;-79
2023/12/22 03:37:24;;;;;;;12.20;7.05;;;;;;;6.53;53.28;97105.63;4938242;29;20495;-78
2023/12/22 03:39:50;;;;;;;13.45;7.25;;;;;;;6.54;53.47;97109.06;4923740;29;20034;-79
2023/12/22 03:42:15;;;;;;;11.82;7.07;;;;;;;6.54;52.75;97106.47;4938711;29;20039;-78
2023/12/22 03:44:41;;;;;;;12.15;7.35;;;;;;;6.54;53.38;97109.88;4940029;29;20035;-79
2023/12/22 03:47:06;;;;;;;12.77;7.28;;;;;;;6.56;52.87;97113.13;4955479;29;20047;-79
2023/12/22 03:49:32;;;;;;;11.20;7.50;;;;;;;6.56;53.04;97100.16;4938790;29;20031;-80
2023/12/22 03:51:58;;;;;;;11.15;7.22;;;;;;;6.52;53.48;97096.22;4956194;28;20034;-79
2023/12/22 03:54:23;;;;;;;10.88;6.68;;;;;;;6.56;53.48;97089.00;4923179;29;20114;-79
2023/12/22 03:56:49;;;;;;;12.63;7.10;;;;;;;6.56;53.19;97076.03;4956444;28;20034;-78
2023/12/22 03:59:18;;;;;;;14.70;7.38;;;;;;;6.58;53.00;97087.06;4955148;29;20043;-79
2023/12/22 04:01:43;;;;;;;10.73;7.38;;;;;;;6.56;53.53;97087.22;4939067;29;20066;-78
2023/12/22 04:04:09;;;;;;;11.75;7.45;;;;;;;6.51;53.56;97092.81;4955070;29;20039;-78
2023/12/22 04:06:39;;;;;;;10.93;7.03;;;;;;;6.48;53.78;97090.50;4954463;28;20038;-81
2023/12/22 04:09:04;;;;;;;11.35;7.05;;;;;;;6.51;54.02;97089.38;4938973;29;20036;-79
2023/12/22 04:11:30;;;;;;;12.25;7.57;;;;;;;6.49;53.89;97086.91;4923063;29;20038;-79
2023/12/22 04:13:55;;;;;;;10.00;6.53;;;;;;;6.44;53.83;97073.53;4949403;28;20039;-78
2023/12/22 04:16:20;;;;;;;12.20;6.68;;;;;;;6.45;53.93;97090.75;4931643;29;20035;-79
2023/12/22 04:18:46;;;;;;;10.95;6.70;;;;;;;6.45;53.96;97092.50;4955039;29;20035;-78
2023/12/22 04:21:11;;;;;;;11.30;6.90;;;;;;;6.45;53.71;97100.28;4954235;29;20483;-79
2023/12/22 04:23:37;;;;;;;9.68;6.22;;;;;;;6.39;54.07;97095.63;4923546;29;20035;-77
2023/12/22 04:26:02;;;;;;;11.60;7.18;;;;;;;6.39;54.16;97085.25;4938424;29;20062;-79
2023/12/22 04:28:28;;;;;;;11.73;7.22;;;;;;;6.44;54.82;97093.47;4937006;29;20039;-76
2023/12/22 04:30:53;;;;;;;12.45;7.45;;;;;;;6.44;54.41;97078.72;4938080;29;20043;-83
2023/12/22 04:33:19;;;;;;;13.50;6.95;;;;;;;6.47;54.20;97080.25;4938740;29;20035;-84
2023/12/22 04:35:44;;;;;;;13.00;7.28;;;;;;;6.44;54.24;97081.31;4954194;29;20035;-83
2023/12/22 04:38:10;;;;;;;14.20;7.55;;;;;;;6.46;54.35;97087.19;4906199;29;20519;-76
2023/12/22 04:40:35;;;;;;;11.10;7.20;;;;;;;6.55;57.24;97082.16;4955664;28;20042;-86
2023/12/22 04:43:01;;;;;;;15.02;5.90;;;;;;;6.81;63.40;97082.50;4925540;29;20188;-81
2023/12/22 04:45:26;;;;;;;12.20;6.47;;;;;;;6.88;60.73;97088.81;4955488;28;20099;-88
2023/12/22 04:47:52;;;;;;;16.52;6.28;;;;;;;6.95;61.46;97074.31;4911436;29;20028;-81
2023/12/22 04:50:18;;;;;;;15.45;6.80;;;;;;;6.95;59.71;97076.09;4919854;29;20050;-82
2023/12/22 04:52:44;;;;;;;10.82;6.35;;;;;;;7.25;68.36;97068.19;4947566;29;20034;-80
2023/12/22 04:55:09;;;;;;;11.48;6.43;;;;;;;7.20;63.25;97060.00;4952594;29;20039;-81
2023/12/22 04:57:35;;;;;;;11.25;6.93;;;;;;;7.19;62.29;97058.34;4922374;29;20421;-85
2023/12/22 05:00:00;;;;;;;12.90;7.10;;;;;;;7.21;62.00;97066.84;4955375;29;20522;-86
2023/12/22 05:02:26;;;;;;;12.07;7.25;;;;;;;7.23;60.87;97069.31;4955412;28;20038;-79
2023/12/22 05:04:51;;;;;;;11.00;7.05;;;;;;;7.20;59.74;97069.56;4937305;29;20031;-79
2023/12/22 05:07:16;;;;;;;11.02;6.72;;;;;;;7.25;58.95;97072.56;4921704;29;20054;-82
2023/12/22 05:09:42;;;;;;;11.95;6.93;;;;;;;7.29;58.55;97073.09;4937627;29;20038;-83
2023/12/22 05:12:08;;;;;;;12.77;6.03;;;;;;;7.39;64.33;97081.72;4954385;28;20030;-86
2023/12/22 05:14:33;;;;;;;14.38;6.80;;;;;;;7.43;61.56;97078.72;4937504;29;20046;-81
2023/12/22 05:16:59;;;;;;;13.13;7.22;;;;;;;7.39;59.62;97079.94;4937330;28;20047;-82
2023/12/22 05:19:24;;;;;;;10.88;6.65;;;;;;;7.31;58.99;97076.41;4937290;29;20050;-83
2023/12/22 05:21:52;;;;;;;9.25;5.15;;;;;;;7.50;67.97;97084.16;4953928;29;20058;-79
2023/12/22 05:24:18;;;;;;;10.30;6.53;;;;;;;7.66;66.87;97085.38;4953742;29;20031;-80
2023/12/22 05:26:43;;;;;;;13.23;6.60;;;;;;;7.68;62.75;97089.47;4937603;29;20055;-81
2023/12/22 05:29:09;;;;;;;9.43;6.18;;;;;;;7.68;62.08;97073.88;4953706;29;20035;-79
2023/12/22 05:31:34;;;;;;;20.48;6.85;;;;;;;7.72;61.52;97090.84;4937570;29;20476;-79
2023/12/22 05:34:00;;;;;;;9.88;6.38;;;;;;;7.74;60.61;97085.50;4952318;29;20050;-79
2023/12/22 05:36:25;;;;;;;10.82;6.97;;;;;;;7.73;60.45;97082.09;4952864;29;20047;-79
2023/12/22 05:38:51;;;;;;;9.88;6.45;;;;;;;7.72;59.82;97080.44;4953639;29;20082;-80
2023/12/22 05:41:16;;;;;;;14.85;6.95;;;;;;;7.70;59.60;97077.19;4951933;29;20070;-81
2023/12/22 05:43:42;;;;;;;11.38;7.43;;;;;;;7.70;58.96;97081.53;4926342;29;20036;-79
2023/12/22 05:46:09;;;;;;;15.57;7.38;;;;;;;7.70;58.53;97079.78;4940472;29;20042;-79
2023/12/22 05:48:35;;;;;;;11.45;7.18;;;;;;;7.68;58.48;97071.28;4947226;28;20039;-79
2023/12/22 05:51:03;;;;;;;12.88;7.47;;;;;;;7.63;58.50;97057.91;4913386;29;20047;-81
2023/12/22 05:53:28;;;;;;;12.47;7.20;;;;;;;7.69;57.94;97059.13;4937937;29;20027;-79
2023/12/22 05:55:54;;;;;;;14.23;7.93;;;;;;;7.62;58.02;97058.84;4921714;29;20282;-79
2023/12/22 05:58:19;;;;;;;13.05;7.72;;;;;;;7.68;57.82;97073.06;4953214;29;20060;-79
2023/12/22 06:00:45;;;;;;;10.98;7.50;;;;;;;7.63;57.86;97063.09;4937346;29;20143;-80
2023/12/22 06:03:10;;;;;;;13.52;7.72;;;;;;;7.61;57.55;97055.44;4937404;29;20395;-80
2023/12/22 06:05:36;;;;;;;15.98;8.07;;;;;;;7.64;57.21;97058.72;4954463;28;20106;-80
2023/12/22 06:08:01;;;;;;;10.80;7.63;;;;;;;7.63;57.06;97060.50;4937396;29;20152;-79
2023/12/22 06:10:27;;;;;;;12.38;8.18;;;;;;;7.67;56.71;97055.84;4937432;29;20107;-79
2023/12/22 06:12:52;;;;;;;13.23;8.73;;;;;;;7.67;56.85;97059.28;4937415;29;20520;-80
2023/12/22 06:15:18;;;;;;;13.43;8.65;;;;;;;7.68;56.69;97052.28;4937225;29;20454;-79
2023/12/22 06:17:43;;;;;;;13.73;8.50;;;;;;;7.64;56.40;97043.97;4937301;29;20086;-78
2023/12/22 06:20:09;;;;;;;14.68;8.90;;;;;;;7.69;56.53;97053.94;4937481;29;20031;-83
2023/12/22 06:22:35;;;;;;;13.00;8.70;;;;;;;7.69;56.73;97046.16;4921146;29;20027;-81
2023/12/22 06:25:02;;;;;;;14.63;9.20;;;;;;;7.68;56.38;97037.53;4922985;28;20027;-79
2023/12/22 06:27:28;;;;;;;15.00;8.48;;;;;;;7.70;56.16;97040.81;4940619;28;20027;-80
2023/12/22 06:29:55;;;;;;;15.15;9.43;;;;;;;7.67;56.62;97041.09;4926028;28;20045;-79
2023/12/22 06:32:21;;;;;;;16.08;8.93;;;;;;;7.71;55.87;97052.00;4959865;28;20154;-80
2023/12/22 06:34:46;;;;;;;17.42;9.32;;;;;;;7.67;55.93;97056.69;4977352;28;20507;-80
2023/12/22 06:37:12;;;;;;;14.45;9.10;;;;;;;7.72;56.15;97056.25;4928164;28;20041;-80
2023/12/22 06:39:38;;;;;;;14.90;9.90;;;;;;;7.75;55.91;97069.78;4943040;28;20537;-82
2023/12/22 06:42:05;;;;;;;15.80;9.50;;;;;;;7.76;55.44;97063.63;4943556;28;20038;-79
2023/12/22 06:44:31;;;;;;;14.43;8.98;;;;;;;7.76;55.70;97071.44;4959931;28;20023;-81
2023/12/22 06:46:57;;;;;;;14.82;9.48;;;;;;;7.79;55.64;97072.91;4927876;28;20034;-79
2023/12/22 06:49:22;;;;;;;19.52;10.13;;;;;;;7.83;55.78;97070.84;4943152;28;20039;-78
2023/12/22 06:51:48;;;;;;;15.00;9.60;;;;;;;7.84;55.44;97062.09;4959613;28;20031;-81
2023/12/22 06:54:13;;;;;;;15.82;10.02;;;;;;;7.83;55.45;97055.25;4943362;28;20042;-82
2023/12/22 06:56:39;;;;;;;20.08;10.65;;;;;;;7.91;54.96;97055.38;4943195;28;20402;-80
2023/12/22 06:59:05;;;;;;;19.13;10.60;;;;;;;7.99;55.18;97060.69;4976960;28;20150;-82
2023/12/22 07:01:32;;;;;;;19.70;11.02;;;;;;;8.03;54.62;97054.22;4943801;28;20031;-82
2023/12/22 07:03:59;;;;;;;17.48;11.38;;;;;;;8.09;54.93;97068.44;4943338;28;20026;-80
2023/12/22 07:06:27;;;;;;;18.85;11.38;;;;;;;8.11;54.40;97064.75;4945159;28;20062;-79
2023/12/22 07:09:19;;;;;;;18.13;11.10;;;;;;;8.12;54.31;97058.59;4944429;28;20023;-81
2023/12/22 07:11:47;;;;;;;23.77;11.70;;;;;;;8.12;54.40;97044.78;4965278;28;20058;-79
2023/12/22 07:14:13;;;;;;;18.27;11.60;;;;;;;8.15;54.74;97036.69;4927441;28;20062;-79
2023/12/22 07:16:38;;;;;;;20.27;11.43;;;;;;;8.20;54.23;97044.88;4942783;28;20090;-79
2023/12/22 07:19:04;;;;;;;18.30;11.68;;;;;;;8.21;54.25;97035.31;4943100;28;20042;-81
2023/12/22 07:21:29;;;;;;;22.42;12.07;;;;;;;8.23;54.14;97036.78;4943189;28;20524;-80
2023/12/22 07:23:55;;;;;;;20.70;10.63;;;;;;;8.27;53.77;97026.91;4942910;28;20442;-79
2023/12/22 07:26:21;;;;;;;18.30;11.07;;;;;;;8.38;53.99;97033.72;4926867;28;20049;-82
2023/12/22 07:28:47;;;;;;;21.45;11.52;;;;;;;8.44;53.95;97038.34;4942748;28;20019;-82
2023/12/22 07:31:13;;;;;;;18.27;11.10;;;;;;;8.51;53.53;97037.63;4943003;28;20066;-81
2023/12/22 07:33:40;;;;;;;17.33;10.18;;;;;;;8.56;53.33;97034.59;4943155;28;20073;-79
2023/12/22 07:36:06;;;;;;;20.15;11.13;;;;;;;8.65;53.07;97038.94;4943034;28;20446;-81
2023/12/22 07:38:31;;;;;;;19.40;10.52;;;;;;;8.69;53.04;97039.44;4958255;28;20125;-80
2023/12/22 07:40:57;;;;;;;15.02;9.95;;;;;;;8.68;52.92;97041.25;4941839;28;20035;-81
2023/12/22 07:43:23;;;;;;;19.02;10.82;;;;;;;8.69;53.04;97042.84;4941726;28;20074;-79
2023/12/22 07:45:50;;;;;;;16.23;10.00;;;;;;;8.70;52.64;97046.28;4958666;28;20034;-79
2023/12/22 07:48:15;;;;;;;17.73;10.48;;;;;;;8.68;52.47;97043.84;4942945;28;20408;-78
2023/12/22 07:50:42;;;;;;;20.10;10.68;;;;;;;8.69;52.37;97049.84;4942437;28;20026;-80
2023/12/22 07:53:08;;;;;;;17.05;10.85;;;;;;;8.72;52.24;97059.97;4942696;28;20093;-80
2023/12/22 07:55:34;;;;;;;20.30;10.93;;;;;;;8.75;52.25;97067.47;4942475;28;20035;-80
2023/12/22 07:57:59;;;;;;;19.85;11.73;;;;;;;8.77;51.62;97065.53;4941758;28;20125;-82
2023/12/22 08:00:25;;;;;;;19.92;11.70;;;;;;;8.80;51.88;97064.44;4926599;28;20289;-81
2023/12/22 08:02:52;;;;;;;25.60;13.98;;;;;;;8.87;51.78;97074.13;4942234;28;20151;-80
2023/12/22 08:05:18;;;;;;;25.75;13.70;;;;;;;8.94;51.58;97065.72;4975353;28;20038;-78
2023/12/22 08:07:44;;;;;;;25.77;14.43;;;;;;;9.00;51.35;97067.75;4958664;28;20470;-80
2023/12/22 08:10:09;;;;;;;34.22;14.05;;;;;;;9.04;50.85;97069.91;4958277;28;20054;-80
2023/12/22 08:12:35;;;;;;;23.40;14.40;;;;;;;9.11;50.75;97079.69;4958037;28;20026;-79
2023/12/22 08:15:01;;;;;;;23.10;14.25;;;;;;;9.11;50.83;97074.47;4941628;28;20046;-80
2023/12/22 08:17:27;;;;;;;23.38;14.70;;;;;;;9.15;50.64;97070.63;4942440;28;20023;-80
2023/12/22 08:19:52;;;;;;;24.42;13.65;;;;;;;9.16;50.79;97070.47;4957937;28;20034;-77
2023/12/22 08:22:18;;;;;;;34.95;15.60;;;;;;;9.20;50.44;97071.00;4957086;28;20462;-80
2023/12/22 08:24:44;;;;;;;28.40;14.95;;;;;;;9.20;50.26;97053.59;4942011;28;20038;-80
2023/12/22 08:27:09;;;;;;;24.33;15.18;;;;;;;9.27;50.31;97066.03;4954206;29;20044;-79
2023/12/22 08:29:34;;;;;;;26.67;15.65;;;;;;;9.22;50.15;97049.06;4938772;29;20031;-79
2023/12/22 08:32:00;;;;;;;24.90;14.88;;;;;;;9.26;50.43;97056.56;4938242;29;20086;-79
2023/12/22 08:34:29;;;;;;;31.55;16.27;;;;;;;9.29;50.15;97061.47;4938528;29;20038;-79
2023/12/22 08:36:54;;;;;;;28.98;16.15;;;;;;;9.27;49.84;97055.63;4938734;29;20031;-79
2023/12/22 08:39:20;;;;;;;24.95;15.93;;;;;;;9.25;49.77;97053.16;4938199;29;20506;-83
2023/12/22 08:41:45;;;;;;;30.90;17.30;;;;;;;9.31;49.91;97067.34;4922490;29;20039;-81
2023/12/22 08:44:14;;;;;;;33.97;18.23;;;;;;;9.29;49.90;97059.69;4938213;29;20027;-81
2023/12/22 08:46:39;;;;;;;33.17;19.13;;;;;;;9.34;49.92;97061.84;4938623;29;20042;-81
2023/12/22 08:49:05;;;;;;;32.63;18.58;;;;;;;9.31;49.96;97059.53;4922287;29;20565;-80
2023/12/22 08:51:30;;;;;;;34.60;19.35;;;;;;;9.31;49.80;97052.53;4921723;28;20423;-80
2023/12/22 08:53:56;;;;;;;43.15;21.52;;;;;;;9.32;50.05;97048.97;4921958;29;20487;-81
2023/12/22 08:56:22;;;;;;;39.28;22.13;;;;;;;9.32;49.73;97048.16;4938106;29;20038;-79
2023/12/22 08:58:49;;;;;;;36.15;21.38;;;;;;;9.36;49.79;97050.31;4937759;29;20035;-79
2023/12/22 09:01:15;;;;;;;43.08;22.92;;;;;;;9.37;49.71;97058.94;4954243;29;20406;-79
2023/12/22 09:03:45;;;;;;;34.90;21.98;;;;;;;9.32;49.91;97041.16;4937952;29;20023;-80
2023/12/22 09:06:13;;;;;;;45.08;22.90;;;;;;;9.35;50.10;97043.47;4953957;29;20035;-80
2023/12/22 09:08:38;;;;;;;41.70;22.85;;;;;;;9.33;49.79;97034.16;4937932;29;20043;-80
2023/12/22 09:11:04;;;;;;;44.63;24.55;;;;;;;9.41;49.75;97037.66;4937775;29;20491;-79
2023/12/22 09:13:29;;;;;;;41.78;23.75;;;;;;;9.41;49.80;97034.25;4937769;29;20070;-79
2023/12/22 09:15:58;;;;;;;45.88;23.98;;;;;;;9.49;49.74;97023.88;4937902;29;20472;-80
2023/12/22 09:18:23;;;;;;;45.15;23.00;;;;;;;9.53;49.71;97030.41;4955014;29;20037;-79
2023/12/22 09:20:49;;;;;;;43.40;23.83;;;;;;;9.55;49.66;97025.03;4937709;29;20047;-80
2023/12/22 09:23:14;;;;;;;43.20;22.98;;;;;;;9.62;49.52;97022.66;4922147;29;20387;-80
2023/12/22 09:25:40;;;;;;;53.25;24.30;;;;;;;9.63;49.96;97014.69;4953395;29;20055;-80
2023/12/22 09:28:06;;;;;;;41.58;24.88;;;;;;;9.67;49.48;97023.00;4955191;28;20027;-80
2023/12/22 09:30:31;;;;;;;48.83;25.25;;;;;;;9.60;49.53;97008.00;4938348;29;20031;-82
2023/12/22 09:32:57;;;;;;;48.70;25.65;;;;;;;9.66;49.60;97019.59;4937544;29;20035;-80
2023/12/22 09:35:24;;;;;;;49.20;26.33;;;;;;;9.71;49.51;97021.72;4937900;29;20083;-82
2023/12/22 09:37:50;;;;;;;51.42;26.75;;;;;;;9.68;49.51;97020.25;4953770;29;20035;-82
2023/12/22 09:40:16;;;;;;;45.50;26.38;;;;;;;9.66;49.39;97009.19;4937632;29;20047;-82
2023/12/22 09:42:42;;;;;;;48.20;27.30;;;;;;;9.70;49.70;97012.28;4922252;29;20046;-82
2023/12/22 09:45:09;;;;;;;48.67;27.65;;;;;;;9.71;49.39;97001.72;4938278;29;20410;-82
2023/12/22 09:47:35;;;;;;;52.03;28.73;;;;;;;9.72;49.54;97000.72;4922394;29;20090;-80
2023/12/22 09:50:01;;;;;;;54.85;28.75;;;;;;;9.69;49.74;96981.97;4922104;29;20039;-82
2023/12/22 09:52:26;;;;;;;58.25;29.20;;;;;;;9.67;49.42;96976.13;4937471;29;20398;-79
2023/12/22 09:54:53;;;;;;;52.50;28.23;;;;;;;9.67;49.94;96981.31;4921536;29;20031;-80
2023/12/22 09:57:19;;;;;;;46.95;27.05;;;;;;;9.68;49.59;96969.94;4921385;29;20064;-79
2023/12/22 09:59:44;;;;;;;51.78;28.23;;;;;;;9.67;49.51;96973.50;4937954;29;20058;-79
2023/12/22 10:02:10;;;;;;;57.08;27.95;;;;;;;9.67;49.40;96955.28;4937554;29;20039;-78
2023/12/22 10:04:35;;;;;;;50.53;28.70;;;;;;;9.67;49.73;96947.47;4954461;28;20039;-81
2023/12/22 10:07:01;;;;;;;53.28;27.08;;;;;;;9.64;49.61;96945.97;4924818;29;20105;-79
2023/12/22 10:09:26;;;;;;;51.08;25.67;;;;;;;9.59;49.77;96949.03;4924891;29;20039;-81
2023/12/22 10:11:53;;;;;;;47.67;25.20;;;;;;;9.63;49.88;96956.53;4957583;29;20057;-80
2023/12/22 10:14:22;;;;;;;45.47;25.70;;;;;;;9.58;49.77;96949.19;4958384;28;20522;-80
2023/12/22 10:16:52;;;;;;;48.53;24.83;;;;;;;9.57;49.84;96943.19;4958594;28;20027;-80
2023/12/22 10:19:17;;;;;;;37.80;23.95;;;;;;;9.57;49.74;96950.19;4924565;29;20510;-80
2023/12/22 10:21:43;;;;;;;41.78;23.00;;;;;;;9.57;50.02;96960.59;4940870;29;20031;-80
2023/12/22 10:24:31;;;;;;;36.20;21.35;;;;;;;9.59;49.85;96969.06;4925658;29;20032;-81
2023/12/22 10:26:56;;;;;;;37.17;20.92;;;;;;;9.56;50.07;96969.38;4943454;29;20491;-80
2023/12/22 10:29:22;;;;;;;45.42;20.77;;;;;;;9.56;49.61;96969.38;4940288;29;20038;-81
2023/12/22 10:31:49;;;;;;;36.80;19.48;;;;;;;9.56;49.83;96958.97;4909343;29;20043;-82
2023/12/22 10:34:15;;;;;;;37.95;19.42;;;;;;;9.56;50.13;96956.34;4939728;29;20046;-80
2023/12/22 10:36:40;;;;;;;34.08;18.38;;;;;;;9.54;49.69;96953.91;4957821;28;20411;-79
2023/12/22 10:39:07;;;;;;;32.72;17.27;;;;;;;9.56;50.08;96957.16;4956561;29;20031;-81
2023/12/22 10:41:33;;;;;;;29.08;16.90;;;;;;;9.55;49.99;96958.16;4924797;29;20487;-81
2023/12/22 10:43:58;;;;;;;29.83;16.98;;;;;;;9.55;50.23;96954.72;4924482;29;20139;-82
2023/12/22 10:46:24;;;;;;;29.38;15.98;;;;;;;9.56;50.03;96951.16;4924127;29;20054;-80
2023/12/22 10:48:53;;;;;;;32.58;16.10;;;;;;;9.56;50.10;96943.31;4956496;29;20050;-81
2023/12/22 10:51:18;;;;;;;27.05;15.27;;;;;;;9.57;50.31;96951.00;4940347;29;20043;-80
2023/12/22 10:53:44;;;;;;;29.77;16.27;;;;;;;9.54;50.08;96938.28;4940364;29;20027;-79
2023/12/22 10:56:10;;;;;;;28.63;15.63;;;;;;;9.60;50.08;96935.06;4956190;29;20042;-79
2023/12/22 10:58:36;;;;;;;26.90;15.20;;;;;;;9.62;49.96;96939.31;4956235;29;20034;-80
2023/12/22 11:01:03;;;;;;;29.02;15.30;;;;;;;9.57;50.43;96922.34;4956031;29;20105;-81
2023/12/22 11:03:29;;;;;;;26.67;14.73;;;;;;;9.62;50.30;96919.25;4940677;29;20050;-80
2023/12/22 11:05:55;;;;;;;30.75;15.18;;;;;;;9.65;50.30;96915.53;4923644;29;20423;-79
2023/12/22 11:08:21;;;;;;;26.38;14.02;;;;;;;9.63;50.10;96907.88;4924573;29;20027;-80
2023/12/22 11:10:47;;;;;;;35.28;15.95;;;;;;;9.63;50.21;96910.50;4940472;29;20106;-82
2023/12/22 11:13:13;;;;;;;29.08;14.63;;;;;;;9.64;50.06;96911.28;4924193;29;20038;-80
2023/12/22 11:15:39;;;;;;;27.67;14.63;;;;;;;9.67;50.16;96913.59;4939553;29;20035;-80
2023/12/22 11:18:05;;;;;;;31.38;15.10;;;;;;;9.74;50.02;96917.19;4939717;29;20094;-81
2023/12/22 11:20:32;;;;;;;27.05;14.95;;;;;;;9.74;49.79;96919.78;4924208;29;20047;-80
2023/12/22 11:22:59;;;;;;;23.08;14.32;;;;;;;9.84;49.89;96915.28;4955818;29;20094;-80
2023/12/22 11:25:24;;;;;;;25.75;15.35;;;;;;;9.89;49.87;96915.63;4923835;29;20510;-79